createdAt,value
2023-03-04T00:00:34.626Z,40.40
2023-03-04T00:01:37.161Z,38.75
2023-03-04T00:02:42.203Z,37.33
2023-03-04T00:03:54.055Z,37.15
2023-03-04T00:04:57.122Z,41.20
2023-03-04T00:06:00.665Z,37.00
2023-03-04T00:07:02.940Z,38.05
2023-03-04T00:08:05.264Z,37.28
2023-03-04T00:09:15.238Z,35.60
2023-03-04T00:10:18.633Z,39.80
2023-03-04T00:11:20.423Z,39.50
2023-03-04T00:12:24.923Z,40.63
2023-03-04T00:13:30.399Z,42.25
2023-03-04T00:14:33.830Z,40.55
2023-03-04T00:15:41.923Z,44.58
2023-03-04T00:16:48.966Z,40.15
2023-03-04T00:18:22.810Z,44.15
2023-03-04T00:19:27.210Z,43.80
2023-03-04T00:20:42.963Z,41.78
2023-03-04T00:21:47.343Z,41.72
2023-03-04T00:22:49.168Z,43.67
2023-03-04T00:23:52.831Z,41.50
2023-03-04T00:24:54.696Z,41.33
2023-03-04T00:25:56.508Z,42.28
2023-03-04T00:27:01.792Z,43.88
2023-03-04T00:28:06.830Z,41.42
2023-03-04T00:29:08.856Z,42.88
2023-03-04T00:30:12.738Z,43.58
2023-03-04T00:31:15.891Z,44.75
2023-03-04T00:32:19.384Z,40.22
2023-03-04T00:33:21.576Z,40.95
2023-03-04T00:34:24.395Z,42.63
2023-03-04T00:35:29.020Z,42.28
2023-03-04T00:36:31.112Z,43.90
2023-03-04T00:37:33.769Z,46.28
2023-03-04T00:38:35.490Z,44.42
2023-03-04T00:39:42.330Z,44.25
2023-03-04T00:40:44.692Z,43.17
2023-03-04T00:41:46.506Z,45.25
2023-03-04T00:42:48.888Z,42.65
2023-03-04T00:43:51.452Z,44.38
2023-03-04T00:44:55.945Z,45.25
2023-03-04T00:45:59.075Z,43.58
2023-03-04T00:47:01.466Z,43.85
2023-03-04T00:48:03.890Z,44.47
2023-03-04T00:49:05.892Z,43.55
2023-03-04T00:50:08.326Z,43.60
2023-03-04T00:51:15.606Z,45.92
2023-03-04T00:52:18.243Z,46.28
2023-03-04T00:53:21.347Z,45.92
2023-03-04T00:54:23.700Z,46.00
2023-03-04T00:55:28.987Z,45.42
2023-03-04T00:56:31.142Z,46.92
2023-03-04T00:57:32.754Z,46.40
2023-03-04T00:58:36.503Z,48.60
2023-03-04T00:59:41.176Z,47.08
2023-03-04T01:00:43.344Z,45.40
2023-03-04T01:01:45.211Z,47.92
2023-03-04T01:02:49.301Z,46.55
2023-03-04T01:03:51.948Z,42.15
2023-03-04T01:04:54.129Z,43.33
2023-03-04T01:05:58.593Z,41.40
2023-03-04T01:07:00.585Z,41.42
2023-03-04T01:08:03.284Z,43.15
2023-03-04T01:09:07.048Z,43.13
2023-03-04T01:10:11.905Z,40.15
2023-03-04T01:11:13.550Z,42.40
2023-03-04T01:12:15.695Z,41.25
2023-03-04T01:13:20.336Z,40.42
2023-03-04T01:14:23.148Z,37.25
2023-03-04T01:15:26.670Z,39.75
2023-03-04T01:16:32.150Z,42.75
2023-03-04T01:17:34.671Z,42.45
2023-03-04T01:18:37.122Z,41.92
2023-03-04T01:19:39.180Z,40.55
2023-03-04T01:20:45.231Z,41.70
2023-03-04T01:21:47.392Z,41.17
2023-03-04T01:22:49.093Z,42.42
2023-03-04T01:23:51.845Z,42.80
2023-03-04T01:24:53.734Z,42.13
2023-03-04T01:25:57.074Z,44.60
2023-03-04T01:27:00.404Z,42.72
2023-03-04T01:28:03.195Z,43.22
2023-03-04T01:29:06.916Z,45.13
2023-03-04T01:30:11.433Z,45.05
2023-03-04T01:31:13.719Z,46.85
2023-03-04T01:32:15.507Z,46.08
2023-03-04T01:33:17.807Z,48.25
2023-03-04T01:34:20.294Z,44.70
2023-03-04T01:35:22.075Z,48.53
2023-03-04T01:36:26.446Z,50.20
2023-03-04T01:37:28.691Z,52.03
2023-03-04T01:38:30.567Z,51.97
2023-03-04T01:39:32.649Z,48.47
2023-03-04T01:40:36.025Z,46.85
2023-03-04T01:41:37.904Z,44.10
2023-03-04T01:42:40.095Z,46.22
2023-03-04T01:43:42.141Z,44.78
2023-03-04T01:44:45.441Z,47.20
2023-03-04T01:45:54.278Z,44.17
2023-03-04T01:46:58.146Z,42.55
2023-03-04T01:48:00.213Z,44.60
2023-03-04T01:49:01.978Z,44.75
2023-03-04T01:50:12.047Z,42.35
2023-03-04T01:51:18.439Z,44.08
2023-03-04T01:52:21.797Z,44.47
2023-03-04T01:53:27.082Z,46.17
2023-03-04T01:54:29.724Z,44.35
2023-03-04T01:55:33.147Z,45.47
2023-03-04T01:56:37.998Z,47.53
2023-03-04T01:57:40.573Z,47.55
2023-03-04T01:58:43.782Z,47.00
2023-03-04T01:59:47.635Z,46.10
2023-03-04T02:00:52.358Z,44.40
2023-03-04T02:01:57.557Z,46.50
2023-03-04T02:03:12.656Z,46.75
2023-03-04T02:04:17.048Z,46.03
2023-03-04T02:05:22.909Z,45.88
2023-03-04T02:06:25.105Z,46.03
2023-03-04T02:07:27.924Z,47.33
2023-03-04T02:08:32.015Z,45.15
2023-03-04T02:09:35.147Z,43.95
2023-03-04T02:10:39.216Z,46.70
2023-03-04T02:11:43.557Z,45.53
2023-03-04T02:12:46.380Z,46.08
2023-03-04T02:13:48.027Z,44.63
2023-03-04T02:14:50.163Z,46.53
2023-03-04T02:15:52.608Z,49.35
2023-03-04T02:16:56.697Z,45.97
2023-03-04T02:18:05.087Z,43.05
2023-03-04T02:19:31.892Z,46.92
2023-03-04T02:21:01.436Z,44.92
2023-03-04T02:22:04.414Z,47.20
2023-03-04T02:23:21.567Z,46.97
2023-03-04T02:24:29.543Z,46.17
2023-03-04T02:25:39.883Z,45.10
2023-03-04T02:26:44.786Z,46.47
2023-03-04T02:27:47.917Z,47.33
2023-03-04T02:28:55.186Z,45.50
2023-03-04T02:29:56.881Z,46.75
2023-03-04T02:30:58.742Z,46.95
2023-03-04T02:32:00.849Z,49.90
2023-03-04T02:33:02.772Z,49.28
2023-03-04T02:34:13.894Z,47.63
2023-03-04T02:35:19.584Z,49.75
2023-03-04T02:36:22.390Z,45.97
2023-03-04T02:37:24.253Z,44.50
2023-03-04T02:38:26.994Z,43.78
2023-03-04T02:39:35.281Z,44.08
2023-03-04T02:40:40.527Z,43.92
2023-03-04T02:41:44.426Z,44.47
2023-03-04T02:42:49.173Z,43.00
2023-03-04T02:43:55.848Z,43.50
2023-03-04T02:45:01.269Z,45.92
2023-03-04T02:46:07.233Z,43.28
2023-03-04T02:47:11.067Z,44.42
2023-03-04T02:48:17.742Z,46.05
2023-03-04T02:49:21.178Z,45.10
2023-03-04T02:50:24.130Z,44.90
2023-03-04T02:51:25.945Z,45.70
2023-03-04T02:52:29.903Z,43.83
2023-03-04T02:53:31.945Z,43.53
2023-03-04T02:54:35.616Z,44.22
2023-03-04T02:55:37.473Z,44.22
2023-03-04T02:56:39.182Z,44.60
2023-03-04T02:57:42.155Z,45.60
2023-03-04T02:58:44.875Z,46.53
2023-03-04T02:59:47.004Z,49.58
2023-03-04T03:00:50.528Z,45.92
2023-03-04T03:01:53.394Z,47.40
2023-03-04T03:02:57.207Z,46.72
2023-03-04T03:04:01.127Z,46.85
2023-03-04T03:05:06.622Z,44.17
2023-03-04T03:06:11.125Z,44.95
2023-03-04T03:07:13.599Z,45.92
2023-03-04T03:08:15.982Z,45.70
2023-03-04T03:09:18.789Z,46.30
2023-03-04T03:10:21.496Z,46.47
2023-03-04T03:11:26.544Z,45.45
2023-03-04T03:12:29.952Z,44.00
2023-03-04T03:13:33.529Z,44.03
2023-03-04T03:14:35.468Z,45.22
2023-03-04T03:15:42.736Z,47.25
2023-03-04T03:16:44.607Z,47.35
2023-03-04T03:17:47.487Z,45.78
2023-03-04T03:18:49.516Z,47.80
2023-03-04T03:19:52.468Z,48.35
2023-03-04T03:20:54.362Z,44.05
2023-03-04T03:21:56.877Z,47.80
2023-03-04T03:22:58.572Z,47.28
2023-03-04T03:24:00.440Z,47.38
2023-03-04T03:25:03.581Z,44.97
2023-03-04T03:26:06.120Z,44.88
2023-03-04T03:27:07.844Z,43.88
2023-03-04T03:28:10.781Z,43.08
2023-03-04T03:29:12.979Z,42.50
2023-03-04T03:30:16.912Z,43.53
2023-03-04T03:31:20.611Z,43.67
2023-03-04T03:32:22.764Z,42.83
2023-03-04T03:33:25.204Z,40.97
2023-03-04T03:34:29.827Z,42.58
2023-03-04T03:35:33.501Z,43.10
2023-03-04T03:36:35.963Z,42.92
2023-03-04T03:37:37.640Z,43.42
2023-03-04T03:38:39.703Z,43.42
2023-03-04T03:39:41.912Z,42.47
2023-03-04T03:40:47.930Z,43.85
2023-03-04T03:41:50.191Z,44.95
2023-03-04T03:42:53.011Z,40.25
2023-03-04T03:43:55.579Z,44.03
2023-03-04T03:44:57.303Z,42.95
2023-03-04T03:45:59.639Z,42.75
2023-03-04T03:47:01.666Z,44.83
2023-03-04T03:48:04.659Z,42.55
2023-03-04T03:49:09.514Z,40.75
2023-03-04T03:50:12.128Z,40.45
2023-03-04T03:51:15.701Z,40.20
2023-03-04T03:52:17.706Z,39.50
2023-03-04T03:53:19.497Z,39.53
2023-03-04T03:54:21.417Z,39.17
2023-03-04T03:55:23.449Z,37.78
2023-03-04T03:56:26.596Z,38.75
2023-03-04T03:57:30.713Z,41.88
2023-03-04T03:58:32.454Z,41.50
2023-03-04T03:59:34.150Z,39.92
2023-03-04T04:00:36.977Z,38.78
2023-03-04T04:01:40.567Z,37.33
2023-03-04T04:02:43.087Z,38.63
2023-03-04T04:03:45.510Z,39.08
2023-03-04T04:04:47.128Z,37.70
2023-03-04T04:05:51.225Z,37.45
2023-03-04T04:06:53.834Z,39.80
2023-03-04T04:07:55.601Z,40.38
2023-03-04T04:08:57.908Z,39.92
2023-03-04T04:10:00.729Z,41.33
2023-03-04T04:11:02.863Z,42.55
2023-03-04T04:12:07.539Z,44.00
2023-03-04T04:13:09.785Z,44.03
2023-03-04T04:14:14.044Z,46.05
2023-03-04T04:15:16.664Z,44.78
2023-03-04T04:16:18.984Z,43.53
2023-03-04T04:17:21.060Z,43.17
2023-03-04T04:18:24.308Z,42.15
2023-03-04T04:19:26.973Z,44.42
2023-03-04T04:20:31.857Z,43.75
2023-03-04T04:21:34.359Z,44.35
2023-03-04T04:22:38.576Z,44.80
2023-03-04T04:23:41.455Z,44.00
2023-03-04T04:24:46.572Z,44.60
2023-03-04T04:25:50.241Z,41.55
2023-03-04T04:26:53.340Z,41.65
2023-03-04T04:27:56.278Z,40.38
2023-03-04T04:28:59.763Z,38.88
2023-03-04T04:30:02.803Z,38.53
2023-03-04T04:31:08.947Z,36.33
2023-03-04T04:32:15.133Z,40.67
2023-03-04T04:33:17.139Z,37.10
2023-03-04T04:34:20.474Z,41.05
2023-03-04T04:35:22.489Z,41.15
2023-03-04T04:36:26.763Z,42.90
2023-03-04T04:37:30.975Z,41.95
2023-03-04T04:38:34.409Z,41.92
2023-03-04T04:39:36.661Z,40.40
2023-03-04T04:40:40.013Z,40.13
2023-03-04T04:41:44.605Z,40.72
2023-03-04T04:42:49.260Z,38.45
2023-03-04T04:43:53.213Z,39.63
2023-03-04T04:44:57.657Z,37.05
2023-03-04T04:46:02.069Z,37.55
2023-03-04T04:47:06.850Z,37.55
2023-03-04T04:48:09.267Z,39.35
2023-03-04T04:49:11.596Z,41.33
2023-03-04T04:50:13.477Z,39.13
2023-03-04T04:51:17.375Z,40.75
2023-03-04T04:52:19.621Z,43.95
2023-03-04T04:53:22.472Z,43.35
2023-03-04T04:54:27.579Z,55.20
2023-03-04T04:55:30.504Z,49.83
2023-03-04T04:56:33.371Z,57.28
2023-03-04T04:57:37.010Z,89.95
2023-03-04T04:58:39.430Z,77.97
2023-03-04T04:59:41.410Z,70.13
2023-03-04T05:00:45.245Z,62.40
2023-03-04T05:01:50.416Z,64.40
2023-03-04T05:02:53.530Z,61.50
2023-03-04T05:03:57.080Z,57.20
2023-03-04T05:04:58.829Z,55.13
2023-03-04T05:06:01.439Z,53.15
2023-03-04T05:07:04.635Z,51.03
2023-03-04T05:08:07.671Z,50.63
2023-03-04T05:09:10.478Z,46.45
2023-03-04T05:10:13.713Z,44.85
2023-03-04T05:11:17.200Z,45.90
2023-03-04T05:12:19.215Z,49.25
2023-03-04T05:13:21.272Z,45.38
2023-03-04T05:14:23.163Z,48.45
2023-03-04T05:15:25.675Z,47.25
2023-03-04T05:16:28.279Z,46.47
2023-03-04T05:17:30.558Z,45.88
2023-03-04T05:18:33.883Z,47.80
2023-03-04T05:19:35.591Z,45.65
2023-03-04T05:20:37.955Z,46.08
2023-03-04T05:21:42.407Z,44.72
2023-03-04T05:22:44.227Z,45.17
2023-03-04T05:23:47.534Z,46.85
2023-03-04T05:24:49.654Z,49.45
2023-03-04T05:25:52.717Z,47.35
2023-03-04T05:26:55.048Z,47.90
2023-03-04T05:28:02.449Z,47.50
2023-03-04T05:29:05.314Z,49.97
2023-03-04T05:30:12.797Z,84.38
2023-03-04T05:31:15.058Z,50.42
2023-03-04T05:32:17.272Z,56.00
2023-03-04T05:33:19.301Z,50.67
2023-03-04T05:34:22.997Z,51.10
2023-03-04T05:35:29.141Z,48.15
2023-03-04T05:36:32.611Z,48.22
2023-03-04T05:37:35.092Z,48.95
2023-03-04T05:38:39.848Z,45.03
2023-03-04T05:39:41.667Z,47.97
2023-03-04T05:40:44.238Z,45.00
2023-03-04T05:41:46.384Z,47.25
2023-03-04T05:42:51.304Z,50.30
2023-03-04T05:43:53.752Z,48.22
2023-03-04T05:44:57.533Z,51.85
2023-03-04T05:46:00.814Z,46.95
2023-03-04T05:47:02.900Z,48.75
2023-03-04T05:48:06.290Z,49.97
2023-03-04T05:49:11.112Z,49.00
2023-03-04T05:50:13.429Z,50.53
2023-03-04T05:51:16.632Z,48.83
2023-03-04T05:52:19.220Z,49.55
2023-03-04T05:53:22.677Z,46.55
2023-03-04T05:54:25.455Z,47.75
2023-03-04T05:55:30.294Z,47.28
2023-03-04T05:56:34.094Z,46.90
2023-03-04T05:57:37.014Z,47.28
2023-03-04T05:58:38.831Z,49.70
2023-03-04T05:59:42.416Z,49.17
2023-03-04T06:00:47.297Z,50.20
2023-03-04T06:01:50.849Z,48.83
2023-03-04T06:02:53.940Z,52.67
2023-03-04T06:04:00.725Z,50.05
2023-03-04T06:05:05.674Z,49.00
2023-03-04T06:06:09.536Z,48.85
2023-03-04T06:07:16.343Z,47.30
2023-03-04T06:08:21.731Z,48.30
2023-03-04T06:09:23.656Z,50.05
2023-03-04T06:10:25.754Z,49.60
2023-03-04T06:11:27.586Z,47.92
2023-03-04T06:12:30.920Z,49.17
2023-03-04T06:13:32.807Z,48.88
2023-03-04T06:14:35.505Z,46.85
2023-03-04T06:15:40.956Z,46.80
2023-03-04T06:16:42.927Z,45.88
2023-03-04T06:17:47.427Z,47.85
2023-03-04T06:18:50.874Z,48.72
2023-03-04T06:19:54.449Z,44.88
2023-03-04T06:20:58.959Z,46.25
2023-03-04T06:22:01.357Z,44.67
2023-03-04T06:23:05.419Z,47.42
2023-03-04T06:24:07.380Z,49.65
2023-03-04T06:25:11.211Z,50.90
2023-03-04T06:26:15.967Z,51.50
2023-03-04T06:27:19.861Z,51.10
2023-03-04T06:28:22.439Z,53.42
2023-03-04T06:29:24.573Z,53.53
2023-03-04T06:30:26.752Z,56.08
2023-03-04T06:31:29.941Z,52.75
2023-03-04T06:32:32.412Z,50.83
2023-03-04T06:33:35.026Z,51.55
2023-03-04T06:34:42.242Z,52.35
2023-03-04T06:35:44.764Z,46.17
2023-03-04T06:36:46.648Z,45.00
2023-03-04T06:37:49.702Z,45.97
2023-03-04T06:38:53.282Z,48.08
2023-03-04T06:39:56.244Z,47.28
2023-03-04T06:41:07.017Z,47.72
2023-03-04T06:42:09.620Z,47.40
2023-03-04T06:43:11.532Z,48.90
2023-03-04T06:44:13.578Z,51.92
2023-03-04T06:45:15.648Z,50.38
2023-03-04T06:46:18.004Z,49.65
2023-03-04T06:47:21.214Z,48.10
2023-03-04T06:48:23.603Z,49.80
2023-03-04T06:49:27.364Z,50.10
2023-03-04T06:50:29.399Z,47.35
2023-03-04T06:51:33.429Z,51.58
2023-03-04T06:52:36.741Z,48.75
2023-03-04T06:53:40.649Z,49.45
2023-03-04T06:54:42.674Z,46.45
2023-03-04T06:55:47.658Z,46.47
2023-03-04T06:56:51.002Z,46.10
2023-03-04T06:57:53.112Z,44.72
2023-03-04T06:58:55.045Z,45.22
2023-03-04T06:59:57.231Z,45.55
2023-03-04T07:01:20.121Z,45.53
2023-03-04T07:02:24.276Z,45.28
2023-03-04T07:03:28.306Z,45.15
2023-03-04T07:04:31.462Z,45.95
2023-03-04T07:05:33.708Z,44.83
2023-03-04T07:06:35.646Z,45.85
2023-03-04T07:07:38.014Z,46.30
2023-03-04T07:08:41.218Z,46.95
2023-03-04T07:09:45.008Z,49.47
2023-03-04T07:10:46.941Z,48.22
2023-03-04T07:11:52.693Z,48.70
2023-03-04T07:12:55.433Z,47.13
2023-03-04T07:13:58.033Z,52.28
2023-03-04T07:14:59.967Z,49.20
2023-03-04T07:16:04.342Z,50.42
2023-03-04T07:17:08.154Z,51.42
2023-03-04T07:18:10.884Z,53.88
2023-03-04T07:19:12.674Z,53.55
2023-03-04T07:20:14.753Z,44.30
2023-03-04T07:21:18.642Z,41.83
2023-03-04T07:22:20.242Z,44.78
2023-03-04T07:23:23.022Z,46.25
2023-03-04T07:24:25.350Z,42.05
2023-03-04T07:25:29.844Z,40.10
2023-03-04T07:26:32.251Z,39.13
2023-03-04T07:27:34.781Z,38.28
2023-03-04T07:28:37.860Z,40.72
2023-03-04T07:29:41.029Z,40.55
2023-03-04T07:30:43.100Z,42.40
2023-03-04T07:31:46.667Z,45.35
2023-03-04T07:32:49.933Z,41.00
2023-03-04T07:33:52.978Z,38.50
2023-03-04T07:34:55.217Z,39.17
2023-03-04T07:36:01.250Z,40.65
2023-03-04T07:37:03.603Z,41.55
2023-03-04T07:38:07.653Z,37.72
2023-03-04T07:39:13.379Z,36.45
2023-03-04T07:40:18.342Z,35.53
2023-03-04T07:41:21.032Z,35.85
2023-03-04T07:42:23.150Z,34.25
2023-03-04T07:43:27.098Z,34.05
2023-03-04T07:44:30.401Z,32.58
2023-03-04T07:45:32.793Z,33.58
2023-03-04T07:46:38.355Z,36.42
2023-03-04T07:47:41.474Z,34.67
2023-03-04T07:48:47.337Z,35.80
2023-03-04T07:49:50.171Z,35.95
2023-03-04T07:51:12.313Z,36.22
2023-03-04T07:52:18.265Z,36.20
2023-03-04T07:53:24.309Z,35.70
2023-03-04T07:54:29.327Z,33.33
2023-03-04T07:55:32.017Z,34.45
2023-03-04T07:56:36.307Z,33.30
2023-03-04T07:58:07.260Z,31.75
2023-03-04T07:59:09.705Z,33.55
2023-03-04T08:00:16.199Z,31.35
2023-03-04T08:01:22.861Z,31.65
2023-03-04T08:02:25.187Z,32.10
2023-03-04T08:03:29.638Z,32.08
2023-03-04T08:04:32.055Z,33.33
2023-03-04T08:05:34.230Z,32.45
2023-03-04T08:06:36.566Z,31.42
2023-03-04T08:07:38.712Z,33.88
2023-03-04T08:08:40.980Z,34.33
2023-03-04T08:09:45.988Z,35.78
2023-03-04T08:10:48.978Z,36.83
2023-03-04T08:11:51.773Z,38.42
2023-03-04T08:12:53.850Z,38.72
2023-03-04T08:13:57.902Z,37.38
2023-03-04T08:15:00.032Z,36.65
2023-03-04T08:16:02.714Z,40.60
2023-03-04T08:17:05.617Z,40.00
2023-03-04T08:18:07.682Z,42.25
2023-03-04T08:19:12.422Z,37.28
2023-03-04T08:20:14.314Z,39.85
2023-03-04T08:21:22.848Z,37.78
2023-03-04T08:22:24.895Z,41.35
2023-03-04T08:23:26.873Z,40.60
2023-03-04T08:24:30.487Z,39.78
2023-03-04T08:25:33.366Z,37.92
2023-03-04T08:26:43.571Z,36.17
2023-03-04T08:27:45.685Z,33.55
2023-03-04T08:28:50.181Z,33.10
2023-03-04T08:29:55.059Z,34.58
2023-03-04T08:30:58.631Z,34.78
2023-03-04T08:32:00.733Z,32.95
2023-03-04T08:33:07.183Z,34.33
2023-03-04T08:34:10.905Z,39.55
2023-03-04T08:35:13.717Z,34.20
2023-03-04T08:36:16.473Z,35.78
2023-03-04T08:37:19.530Z,33.70
2023-03-04T08:38:21.850Z,36.03
2023-03-04T08:39:23.434Z,35.75
2023-03-04T08:40:27.493Z,32.65
2023-03-04T08:41:29.847Z,34.47
2023-03-04T08:42:31.736Z,34.78
2023-03-04T08:43:36.459Z,34.08
2023-03-04T08:44:38.482Z,35.30
2023-03-04T08:45:43.576Z,33.80
2023-03-04T08:46:45.337Z,34.55
2023-03-04T08:47:47.503Z,33.65
2023-03-04T08:48:53.520Z,34.03
2023-03-04T08:49:58.737Z,32.88
2023-03-04T08:51:00.895Z,33.60
2023-03-04T08:52:05.761Z,32.15
2023-03-04T08:53:07.731Z,33.45
2023-03-04T08:54:09.674Z,33.95
2023-03-04T08:55:11.486Z,34.80
2023-03-04T08:56:14.438Z,35.08
2023-03-04T08:57:17.349Z,34.03
2023-03-04T08:58:20.899Z,36.83
2023-03-04T08:59:23.096Z,37.28
2023-03-04T09:00:25.166Z,38.05
2023-03-04T09:01:41.835Z,36.58
2023-03-04T09:02:43.570Z,37.90
2023-03-04T09:03:45.749Z,37.78
2023-03-04T09:04:47.762Z,39.65
2023-03-04T09:05:49.849Z,40.17
2023-03-04T09:06:53.893Z,36.72
2023-03-04T09:07:55.847Z,37.10
2023-03-04T09:08:57.685Z,48.05
2023-03-04T09:09:59.878Z,91.90
2023-03-04T09:11:02.174Z,41.75
2023-03-04T09:12:04.206Z,38.10
2023-03-04T09:13:06.474Z,35.95
2023-03-04T09:14:08.649Z,34.53
2023-03-04T09:15:12.100Z,36.22
2023-03-04T09:16:15.129Z,35.78
2023-03-04T09:17:18.556Z,37.78
2023-03-04T09:18:22.006Z,38.47
2023-03-04T09:19:24.303Z,37.70
2023-03-04T09:20:26.263Z,36.78
2023-03-04T09:21:28.156Z,40.05
2023-03-04T09:22:29.984Z,35.85
2023-03-04T09:23:31.990Z,36.65
2023-03-04T09:24:33.757Z,35.63
2023-03-04T09:25:37.047Z,34.47
2023-03-04T09:26:39.031Z,34.47
2023-03-04T09:27:41.379Z,37.97
2023-03-04T09:28:43.408Z,35.25
2023-03-04T09:29:45.781Z,34.88
2023-03-04T09:30:48.549Z,34.78
2023-03-04T09:31:50.485Z,33.25
2023-03-04T09:32:52.224Z,34.33
2023-03-04T09:33:56.496Z,38.20
2023-03-04T09:34:58.573Z,35.75
2023-03-04T09:36:00.537Z,36.00
2023-03-04T09:37:02.516Z,35.25
2023-03-04T09:38:04.244Z,34.63
2023-03-04T09:39:06.286Z,35.25
2023-03-04T09:40:09.959Z,36.47
2023-03-04T09:41:25.684Z,34.80
2023-03-04T09:42:34.509Z,35.13
2023-03-04T09:43:40.238Z,33.15
2023-03-04T09:44:45.968Z,35.88
2023-03-04T09:45:53.455Z,35.13
2023-03-04T09:46:59.312Z,37.97
2023-03-04T09:48:01.887Z,35.53
2023-03-04T09:49:07.127Z,38.55
2023-03-04T09:50:11.418Z,36.58
2023-03-04T09:51:34.885Z,37.80
2023-03-04T09:53:13.968Z,36.65
2023-03-04T09:54:36.847Z,39.47
2023-03-04T09:55:43.687Z,39.45
2023-03-04T09:56:45.475Z,50.30
2023-03-04T09:57:56.054Z,38.78
2023-03-04T09:59:25.600Z,38.83
2023-03-04T10:00:39.782Z,37.85
2023-03-04T10:01:56.539Z,39.30
2023-03-04T10:02:58.126Z,40.67
2023-03-04T10:04:18.825Z,39.05
2023-03-04T10:05:25.026Z,38.97
2023-03-04T10:06:28.823Z,38.42
2023-03-04T10:07:37.168Z,39.78
2023-03-04T10:09:11.994Z,39.75
2023-03-04T10:10:19.494Z,39.83
2023-03-04T10:11:31.776Z,39.47
2023-03-04T10:12:36.447Z,40.15
2023-03-04T10:13:44.983Z,39.42
2023-03-04T10:14:52.843Z,36.72
2023-03-04T10:15:55.723Z,39.80
2023-03-04T10:17:00.500Z,37.45
2023-03-04T10:18:42.376Z,38.95
2023-03-04T10:19:57.846Z,38.72
2023-03-04T10:21:12.683Z,36.78
2023-03-04T10:22:36.653Z,36.50
2023-03-04T10:23:38.697Z,36.78
2023-03-04T10:24:41.120Z,37.03
2023-03-04T10:25:47.027Z,36.58
2023-03-04T10:26:53.609Z,38.25
2023-03-04T10:28:09.576Z,38.90
2023-03-04T10:29:21.277Z,37.97
2023-03-04T10:30:53.504Z,35.53
2023-03-04T10:31:56.489Z,40.13
2023-03-04T10:32:58.705Z,38.92
2023-03-04T10:34:00.630Z,37.15
2023-03-04T10:35:02.528Z,40.00
2023-03-04T10:36:25.998Z,38.40
2023-03-04T10:37:45.697Z,38.17
2023-03-04T10:38:47.320Z,39.00
2023-03-04T10:39:50.619Z,38.20
2023-03-04T10:40:52.470Z,39.70
2023-03-04T10:42:06.252Z,37.93
2023-03-04T10:43:17.034Z,39.87
2023-03-04T10:44:19.136Z,39.35
2023-03-04T10:45:27.920Z,40.03
2023-03-04T10:46:31.376Z,39.30
2023-03-04T10:47:34.097Z,41.25
2023-03-04T10:48:35.823Z,42.05
2023-03-04T10:49:54.809Z,41.40
2023-03-04T10:51:30.311Z,43.50
2023-03-04T10:52:53.157Z,42.80
2023-03-04T10:54:06.427Z,40.25
2023-03-04T10:55:20.199Z,41.63
2023-03-04T10:56:45.847Z,43.58
2023-03-04T10:58:12.786Z,42.90
2023-03-04T10:59:50.447Z,41.92
2023-03-04T11:01:04.813Z,44.03
2023-03-04T11:02:17.581Z,46.45
2023-03-04T11:03:32.480Z,42.85
2023-03-04T11:04:34.677Z,40.60
2023-03-04T11:05:36.413Z,43.50
2023-03-04T11:06:41.735Z,42.85
2023-03-04T11:07:57.821Z,42.50
2023-03-04T11:09:00.296Z,41.60
2023-03-04T11:10:10.792Z,40.37
2023-03-04T11:11:31.306Z,42.20
2023-03-04T11:12:34.775Z,43.90
2023-03-04T11:13:36.857Z,39.00
2023-03-04T11:14:46.558Z,40.83
2023-03-04T11:16:05.990Z,41.20
2023-03-04T11:17:20.067Z,41.80
2023-03-04T11:18:30.665Z,41.00
2023-03-04T11:19:39.149Z,39.85
2023-03-04T11:20:43.617Z,40.63
2023-03-04T11:21:45.671Z,41.17
2023-03-04T11:22:47.385Z,41.75
2023-03-04T11:24:00.333Z,41.10
2023-03-04T11:25:24.005Z,38.40
2023-03-04T11:26:43.193Z,38.47
2023-03-04T11:27:48.748Z,36.28
2023-03-04T11:29:25.048Z,40.53
2023-03-04T11:30:36.589Z,39.67
2023-03-04T11:31:51.315Z,37.20
2023-03-04T11:32:57.364Z,40.17
2023-03-04T11:34:05.088Z,40.05
2023-03-04T11:35:58.476Z,38.67
2023-03-04T11:37:19.497Z,39.13
2023-03-04T11:38:32.092Z,41.90
2023-03-04T11:39:41.236Z,41.55
2023-03-04T11:40:55.226Z,41.50
2023-03-04T11:42:11.466Z,43.17
2023-03-04T11:43:19.486Z,40.28
2023-03-04T11:44:21.463Z,43.80
2023-03-04T11:45:54.695Z,43.47
2023-03-04T11:47:17.849Z,42.35
2023-03-04T11:48:42.317Z,44.40
2023-03-04T11:50:09.554Z,38.38
2023-03-04T11:51:32.440Z,36.30
2023-03-04T11:52:55.437Z,37.63
2023-03-04T11:54:15.788Z,39.15
2023-03-04T11:55:38.372Z,42.65
2023-03-04T11:56:45.779Z,38.20
2023-03-04T11:58:12.336Z,41.28
2023-03-04T11:59:38.157Z,39.70
2023-03-04T12:00:45.836Z,40.53
2023-03-04T12:01:50.585Z,42.40
2023-03-04T12:03:16.499Z,44.40
2023-03-04T12:04:37.288Z,45.33
2023-03-04T12:06:07.494Z,44.45
2023-03-04T12:07:21.497Z,43.10
2023-03-04T12:08:48.358Z,47.28
2023-03-04T12:09:56.140Z,43.20
2023-03-04T12:11:05.094Z,46.65
2023-03-04T12:12:44.374Z,45.13
2023-03-04T12:14:03.336Z,46.92
2023-03-04T12:15:24.844Z,46.75
2023-03-04T12:16:49.844Z,45.85
2023-03-04T12:17:54.449Z,48.03
2023-03-04T12:19:05.036Z,45.83
2023-03-04T12:20:17.038Z,44.72
2023-03-04T12:21:33.367Z,46.60
2023-03-04T12:22:37.751Z,46.70
2023-03-04T12:24:17.316Z,44.40
2023-03-04T12:25:25.520Z,45.28
2023-03-04T12:27:06.803Z,45.03
2023-03-04T12:28:34.482Z,44.13
2023-03-04T12:29:57.327Z,41.35
2023-03-04T12:31:08.087Z,43.70
2023-03-04T12:32:40.947Z,43.35
2023-03-04T12:34:08.894Z,43.10
2023-03-04T12:35:40.696Z,44.47
2023-03-04T12:37:21.702Z,43.75
2023-03-04T12:38:35.861Z,46.03
2023-03-04T12:39:48.989Z,45.92
2023-03-04T12:41:16.149Z,46.00
2023-03-04T12:42:42.035Z,48.35
2023-03-04T12:44:12.720Z,44.00
2023-03-04T12:45:20.685Z,45.53
2023-03-04T12:46:48.114Z,45.63
2023-03-04T12:48:07.159Z,47.05
2023-03-04T12:49:27.404Z,44.92
2023-03-04T12:50:50.848Z,45.97
2023-03-04T12:52:06.978Z,42.97
2023-03-04T12:53:34.968Z,44.35
2023-03-04T12:54:45.632Z,44.33
2023-03-04T12:55:49.756Z,41.95
2023-03-04T12:57:25.023Z,44.80
2023-03-04T12:58:30.177Z,46.55
2023-03-04T12:59:50.146Z,47.38
2023-03-04T13:01:15.983Z,45.97
2023-03-04T13:02:20.728Z,47.63
2023-03-04T13:03:28.356Z,48.03
2023-03-04T13:04:47.226Z,48.92
2023-03-04T13:05:52.498Z,49.63
2023-03-04T13:07:17.218Z,52.10
2023-03-04T13:08:47.046Z,49.05
2023-03-04T13:09:55.901Z,45.90
2023-03-04T13:11:02.949Z,48.95
2023-03-04T13:12:20.938Z,48.60
2023-03-04T13:14:03.467Z,49.95
2023-03-04T13:15:08.174Z,47.90
2023-03-04T13:16:19.067Z,49.05
2023-03-04T13:17:38.413Z,51.72
2023-03-04T13:18:40.636Z,48.42
2023-03-04T13:19:43.956Z,50.13
2023-03-04T13:20:45.941Z,50.88
2023-03-04T13:21:48.844Z,48.60
2023-03-04T13:23:09.004Z,51.72
2023-03-04T13:24:46.315Z,46.50
2023-03-04T13:25:57.150Z,47.10
2023-03-04T13:27:02.453Z,43.88
2023-03-04T13:28:16.082Z,45.00
2023-03-04T13:29:18.029Z,47.38
2023-03-04T13:30:31.918Z,43.85
2023-03-04T13:31:59.911Z,144.90
2023-03-04T13:33:10.803Z,84.15
2023-03-04T13:34:42.781Z,57.55
2023-03-04T13:35:50.394Z,42.28
2023-03-04T13:36:56.604Z,45.03
2023-03-04T13:38:00.233Z,43.72
2023-03-04T13:39:22.497Z,45.30
2023-03-04T13:40:33.859Z,44.50
2023-03-04T13:41:53.861Z,46.47
2023-03-04T13:42:55.692Z,47.40
2023-03-04T13:43:59.492Z,44.63
2023-03-04T13:45:01.765Z,46.20
2023-03-04T13:46:18.786Z,46.50
2023-03-04T13:47:27.584Z,45.80
2023-03-04T13:48:36.243Z,44.15
2023-03-04T13:49:38.594Z,44.67
2023-03-04T13:50:51.465Z,43.40
2023-03-04T13:51:53.782Z,45.03
2023-03-04T13:53:18.246Z,49.25
2023-03-04T13:54:20.056Z,50.75
2023-03-04T13:55:40.603Z,47.15
2023-03-04T13:56:46.478Z,44.47
2023-03-04T13:57:50.426Z,46.58
2023-03-04T13:59:04.128Z,52.67
2023-03-04T14:00:12.014Z,45.42
2023-03-04T14:01:32.147Z,43.92
2023-03-04T14:02:35.203Z,45.97
2023-03-04T14:03:37.015Z,43.00
2023-03-04T14:04:40.955Z,43.47
2023-03-04T14:05:42.885Z,44.33
2023-03-04T14:06:47.631Z,46.40
2023-03-04T14:07:49.523Z,47.47
2023-03-04T14:08:52.997Z,44.35
2023-03-04T14:10:08.880Z,44.90
2023-03-04T14:11:16.469Z,44.58
2023-03-04T14:12:18.463Z,43.53
2023-03-04T14:13:20.357Z,47.60
2023-03-04T14:14:26.741Z,44.33
2023-03-04T14:15:33.567Z,45.20
2023-03-04T14:16:40.984Z,45.55
2023-03-04T14:17:49.432Z,43.30
2023-03-04T14:18:59.685Z,34.30